sensor_id;sensor_type;location;lat;lon;timestamp;temperature;humidity
38938;DHT22;24727;51.974;20.868;2023-03-01T00:01:25;-2.90;1.00
38938;DHT22;24727;51.974;20.868;2023-03-01T00:03:52;-2.90;1.00
38938;DHT22;24727;51.974;20.868;2023-03-01T00:06:19;-2.90;1.00
38938;DHT22;24727;51.974;20.868;2023-03-01T00:08:46;-2.90;1.00
38938;DHT22;24727;51.974;20.868;2023-03-01T00:11:16;-2.90;1.00
38938;DHT22;24727;51.974;20.868;2023-03-01T00:13:43;-3.00;1.00
38938;DHT22;24727;51.974;20.868;2023-03-01T00:16:12;-3.00;1.00
38938;DHT22;24727;51.974;20.868;2023-03-01T00:18:39;-3.10;1.00
38938;DHT22;24727;51.974;20.868;2023-03-01T00:21:05;-3.20;1.00
38938;DHT22;24727;51.974;20.868;2023-03-01T00:23:33;-3.10;1.00
38938;DHT22;24727;51.974;20.868;2023-03-01T00:25:59;-3.10;1.00
38938;DHT22;24727;51.974;20.868;2023-03-01T00:28:25;-3.10;1.00
38938;DHT22;24727;51.974;20.868;2023-03-01T00:30:51;-3.00;1.00
38938;DHT22;24727;51.974;20.868;2023-03-01T00:33:23;-3.00;1.00
38938;DHT22;24727;51.974;20.868;2023-03-01T00:35:49;-3.00;1.00
38938;DHT22;24727;51.974;20.868;2023-03-01T00:38:15;-3.00;1.00
38938;DHT22;24727;51.974;20.868;2023-03-01T00:40:41;-3.00;1.00
38938;DHT22;24727;51.974;20.868;2023-03-01T00:43:08;-3.00;1.00
38938;DHT22;24727;51.974;20.868;2023-03-01T00:45:35;-3.00;1.00
38938;DHT22;24727;51.974;20.868;2023-03-01T00:48:01;-3.00;1.00
38938;DHT22;24727;51.974;20.868;2023-03-01T00:50:27;-3.10;1.00
38938;DHT22;24727;51.974;20.868;2023-03-01T00:52:54;-3.10;1.00
38938;DHT22;24727;51.974;20.868;2023-03-01T00:55:21;-3.10;1.00
38938;DHT22;24727;51.974;20.868;2023-03-01T00:57:47;-3.10;1.00
38938;DHT22;24727;51.974;20.868;2023-03-01T01:00:14;-3.10;1.00
38938;DHT22;24727;51.974;20.868;2023-03-01T01:02:40;-3.10;1.00
38938;DHT22;24727;51.974;20.868;2023-03-01T01:05:07;-3.10;1.00
38938;DHT22;24727;51.974;20.868;2023-03-01T01:07:34;-3.10;1.00
38938;DHT22;24727;51.974;20.868;2023-03-01T01:09:59;-3.10;1.00
38938;DHT22;24727;51.974;20.868;2023-03-01T01:12:26;-3.10;1.00
38938;DHT22;24727;51.974;20.868;2023-03-01T01:14:52;-3.10;1.00
38938;DHT22;24727;51.974;20.868;2023-03-01T01:17:18;-3.10;1.00
38938;DHT22;24727;51.974;20.868;2023-03-01T01:19:46;-3.10;1.00
38938;DHT22;24727;51.974;20.868;2023-03-01T01:22:12;-3.10;1.00
38938;DHT22;24727;51.974;20.868;2023-03-01T01:24:38;-3.10;1.00
38938;DHT22;24727;51.974;20.868;2023-03-01T01:27:05;-3.10;1.00
38938;DHT22;24727;51.974;20.868;2023-03-01T01:29:33;-3.10;1.00
38938;DHT22;24727;51.974;20.868;2023-03-01T01:31:59;-3.00;1.00
38938;DHT22;24727;51.974;20.868;2023-03-01T01:34:37;-3.00;1.00
38938;DHT22;24727;51.974;20.868;2023-03-01T01:37:05;-2.90;1.00
38938;DHT22;24727;51.974;20.868;2023-03-01T01:39:37;-2.90;1.00
38938;DHT22;24727;51.974;20.868;2023-03-01T01:42:03;-2.90;1.00
38938;DHT22;24727;51.974;20.868;2023-03-01T01:44:29;-2.90;1.00
38938;DHT22;24727;51.974;20.868;2023-03-01T01:46:58;-2.90;1.00
38938;DHT22;24727;51.974;20.868;2023-03-01T01:49:38;-2.90;1.00
38938;DHT22;24727;51.974;20.868;2023-03-01T01:52:12;-2.90;1.00
38938;DHT22;24727;51.974;20.868;2023-03-01T01:57:45;-3.00;1.00
38938;DHT22;24727;51.974;20.868;2023-03-01T02:00:19;-3.00;1.00
38938;DHT22;24727;51.974;20.868;2023-03-01T02:02:48;-3.00;1.00
38938;DHT22;24727;51.974;20.868;2023-03-01T02:08:02;-3.00;1.00
38938;DHT22;24727;51.974;20.868;2023-03-01T02:10:31;-3.10;1.00
38938;DHT22;24727;51.974;20.868;2023-03-01T02:13:00;-3.00;1.00
38938;DHT22;24727;51.974;20.868;2023-03-01T02:15:32;-3.00;1.00
38938;DHT22;24727;51.974;20.868;2023-03-01T02:18:01;-3.00;1.00
38938;DHT22;24727;51.974;20.868;2023-03-01T02:23:09;-3.10;1.00
38938;DHT22;24727;51.974;20.868;2023-03-01T02:25:56;-3.00;1.00
38938;DHT22;24727;51.974;20.868;2023-03-01T02:28:42;-3.00;1.00
38938;DHT22;24727;51.974;20.868;2023-03-01T02:31:10;-3.00;1.00
38938;DHT22;24727;51.974;20.868;2023-03-01T02:33:59;-3.00;1.00
38938;DHT22;24727;51.974;20.868;2023-03-01T02:36:30;-3.00;1.00
38938;DHT22;24727;51.974;20.868;2023-03-01T02:38:58;-3.00;1.00
38938;DHT22;24727;51.974;20.868;2023-03-01T02:41:28;-2.90;1.00
38938;DHT22;24727;51.974;20.868;2023-03-01T02:43:56;-3.00;1.00
38938;DHT22;24727;51.974;20.868;2023-03-01T02:46:25;-3.00;1.00
38938;DHT22;24727;51.974;20.868;2023-03-01T02:48:57;-3.10;1.00
38938;DHT22;24727;51.974;20.868;2023-03-01T02:51:42;-3.10;1.00
38938;DHT22;24727;51.974;20.868;2023-03-01T02:54:27;-3.10;1.00
38938;DHT22;24727;51.974;20.868;2023-03-01T02:56:55;-3.20;1.00
38938;DHT22;24727;51.974;20.868;2023-03-01T02:59:27;-3.20;1.00
38938;DHT22;24727;51.974;20.868;2023-03-01T03:01:54;-3.20;1.00
38938;DHT22;24727;51.974;20.868;2023-03-01T03:04:21;-3.20;1.00
38938;DHT22;24727;51.974;20.868;2023-03-01T03:06:50;-3.20;1.00
38938;DHT22;24727;51.974;20.868;2023-03-01T03:09:18;-3.20;1.00
38938;DHT22;24727;51.974;20.868;2023-03-01T03:11:45;-3.10;1.00
38938;DHT22;24727;51.974;20.868;2023-03-01T03:14:13;-3.10;1.00
38938;DHT22;24727;51.974;20.868;2023-03-01T03:16:44;-3.10;1.00
38938;DHT22;24727;51.974;20.868;2023-03-01T03:19:11;-3.10;1.00
38938;DHT22;24727;51.974;20.868;2023-03-01T03:21:38;-3.10;1.00
38938;DHT22;24727;51.974;20.868;2023-03-01T03:24:04;-3.10;1.00
38938;DHT22;24727;51.974;20.868;2023-03-01T03:26:31;-3.10;1.00
38938;DHT22;24727;51.974;20.868;2023-03-01T03:28:57;-3.10;1.00
38938;DHT22;24727;51.974;20.868;2023-03-01T03:31:23;-3.10;1.00
38938;DHT22;24727;51.974;20.868;2023-03-01T03:33:50;-3.00;1.00
38938;DHT22;24727;51.974;20.868;2023-03-01T03:36:22;-3.00;1.00
38938;DHT22;24727;51.974;20.868;2023-03-01T03:38:48;-3.00;1.00
38938;DHT22;24727;51.974;20.868;2023-03-01T03:41:15;-3.00;1.00
38938;DHT22;24727;51.974;20.868;2023-03-01T03:43:42;-3.00;1.00
38938;DHT22;24727;51.974;20.868;2023-03-01T03:46:10;-3.00;1.00
38938;DHT22;24727;51.974;20.868;2023-03-01T03:48:40;-2.90;1.00
38938;DHT22;24727;51.974;20.868;2023-03-01T03:51:10;-2.90;1.00
38938;DHT22;24727;51.974;20.868;2023-03-01T03:53:36;-2.90;1.00
38938;DHT22;24727;51.974;20.868;2023-03-01T03:56:06;-2.90;1.00
38938;DHT22;24727;51.974;20.868;2023-03-01T03:58:32;-2.90;1.00
38938;DHT22;24727;51.974;20.868;2023-03-01T04:01:00;-3.00;1.00
38938;DHT22;24727;51.974;20.868;2023-03-01T04:03:28;-2.90;1.00
38938;DHT22;24727;51.974;20.868;2023-03-01T04:05:56;-2.90;1.00
38938;DHT22;24727;51.974;20.868;2023-03-01T04:08:24;-2.80;1.00
38938;DHT22;24727;51.974;20.868;2023-03-01T04:10:52;-2.80;1.00
38938;DHT22;24727;51.974;20.868;2023-03-01T04:13:23;-2.80;1.00
38938;DHT22;24727;51.974;20.868;2023-03-01T04:15:52;-2.70;1.00
38938;DHT22;24727;51.974;20.868;2023-03-01T04:18:20;-2.60;1.00
38938;DHT22;24727;51.974;20.868;2023-03-01T04:20:46;-2.60;1.00
38938;DHT22;24727;51.974;20.868;2023-03-01T04:23:16;-2.60;1.00
38938;DHT22;24727;51.974;20.868;2023-03-01T04:25:50;-2.50;1.00
38938;DHT22;24727;51.974;20.868;2023-03-01T04:28:32;-2.50;1.00
38938;DHT22;24727;51.974;20.868;2023-03-01T04:31:13;-2.60;1.00
38938;DHT22;24727;51.974;20.868;2023-03-01T04:33:53;-2.60;1.00
38938;DHT22;24727;51.974;20.868;2023-03-01T04:36:23;-2.50;1.00
38938;DHT22;24727;51.974;20.868;2023-03-01T04:38:52;-2.50;1.00
38938;DHT22;24727;51.974;20.868;2023-03-01T04:41:21;-2.50;1.00
38938;DHT22;24727;51.974;20.868;2023-03-01T04:43:53;-2.50;1.00
38938;DHT22;24727;51.974;20.868;2023-03-01T04:46:20;-2.50;1.00
38938;DHT22;24727;51.974;20.868;2023-03-01T04:48:48;-2.60;1.00
38938;DHT22;24727;51.974;20.868;2023-03-01T04:51:14;-2.60;1.00
38938;DHT22;24727;51.974;20.868;2023-03-01T04:53:42;-2.60;1.00
38938;DHT22;24727;51.974;20.868;2023-03-01T04:56:08;-2.50;1.00
38938;DHT22;24727;51.974;20.868;2023-03-01T04:58:36;-2.50;1.00
38938;DHT22;24727;51.974;20.868;2023-03-01T05:01:08;-2.50;1.00
38938;DHT22;24727;51.974;20.868;2023-03-01T05:03:41;-2.50;1.00
38938;DHT22;24727;51.974;20.868;2023-03-01T05:06:08;-2.50;1.00
38938;DHT22;24727;51.974;20.868;2023-03-01T05:08:34;-2.60;1.00
38938;DHT22;24727;51.974;20.868;2023-03-01T05:11:02;-2.60;1.00
38938;DHT22;24727;51.974;20.868;2023-03-01T05:13:29;-2.70;1.00
38938;DHT22;24727;51.974;20.868;2023-03-01T05:15:58;-2.70;1.00
38938;DHT22;24727;51.974;20.868;2023-03-01T05:18:25;-2.60;1.00
38938;DHT22;24727;51.974;20.868;2023-03-01T05:20:52;-2.60;1.00
38938;DHT22;24727;51.974;20.868;2023-03-01T05:23:22;-2.60;1.00
38938;DHT22;24727;51.974;20.868;2023-03-01T05:25:49;-2.60;1.00
38938;DHT22;24727;51.974;20.868;2023-03-01T05:28:19;-2.60;1.00
38938;DHT22;24727;51.974;20.868;2023-03-01T05:30:47;-2.50;1.00
38938;DHT22;24727;51.974;20.868;2023-03-01T05:33:13;-2.50;1.00
38938;DHT22;24727;51.974;20.868;2023-03-01T05:35:43;-2.50;1.00
38938;DHT22;24727;51.974;20.868;2023-03-01T05:38:10;-2.40;1.00
38938;DHT22;24727;51.974;20.868;2023-03-01T05:40:48;-2.40;1.00
38938;DHT22;24727;51.974;20.868;2023-03-01T05:43:16;-2.40;1.00
38938;DHT22;24727;51.974;20.868;2023-03-01T05:45:42;-2.40;1.00
38938;DHT22;24727;51.974;20.868;2023-03-01T05:48:10;-2.30;1.00
38938;DHT22;24727;51.974;20.868;2023-03-01T05:50:39;-2.30;1.00
38938;DHT22;24727;51.974;20.868;2023-03-01T05:53:16;-2.40;1.00
38938;DHT22;24727;51.974;20.868;2023-03-01T05:55:45;-2.40;1.00
38938;DHT22;24727;51.974;20.868;2023-03-01T05:58:18;-2.40;1.00
38938;DHT22;24727;51.974;20.868;2023-03-01T06:00:45;-2.40;1.00
38938;DHT22;24727;51.974;20.868;2023-03-01T06:03:12;-2.40;1.00
38938;DHT22;24727;51.974;20.868;2023-03-01T06:05:40;-2.30;1.00
38938;DHT22;24727;51.974;20.868;2023-03-01T06:08:07;-2.30;1.00
38938;DHT22;24727;51.974;20.868;2023-03-01T06:10:36;-2.30;1.00
38938;DHT22;24727;51.974;20.868;2023-03-01T06:13:02;-2.20;1.00
38938;DHT22;24727;51.974;20.868;2023-03-01T06:15:28;-2.10;1.00
38938;DHT22;24727;51.974;20.868;2023-03-01T06:17:56;-2.10;1.00
38938;DHT22;24727;51.974;20.868;2023-03-01T06:20:24;-2.10;1.00
38938;DHT22;24727;51.974;20.868;2023-03-01T06:22:51;-2.10;1.00
38938;DHT22;24727;51.974;20.868;2023-03-01T06:25:20;-2.00;1.00
38938;DHT22;24727;51.974;20.868;2023-03-01T06:27:46;-2.00;1.00
38938;DHT22;24727;51.974;20.868;2023-03-01T06:30:16;-1.90;1.00
38938;DHT22;24727;51.974;20.868;2023-03-01T06:32:43;-1.90;1.00
38938;DHT22;24727;51.974;20.868;2023-03-01T06:35:14;-1.90;1.00
38938;DHT22;24727;51.974;20.868;2023-03-01T06:37:41;-1.80;1.00
38938;DHT22;24727;51.974;20.868;2023-03-01T06:40:08;-1.70;1.00
38938;DHT22;24727;51.974;20.868;2023-03-01T06:42:39;-1.70;1.00
38938;DHT22;24727;51.974;20.868;2023-03-01T06:45:06;-1.60;1.00
38938;DHT22;24727;51.974;20.868;2023-03-01T06:47:33;-1.50;1.00
38938;DHT22;24727;51.974;20.868;2023-03-01T06:50:00;-1.40;1.00
38938;DHT22;24727;51.974;20.868;2023-03-01T06:52:27;-1.40;1.00
38938;DHT22;24727;51.974;20.868;2023-03-01T06:54:53;-1.30;1.00
38938;DHT22;24727;51.974;20.868;2023-03-01T06:57:19;-1.20;1.00
38938;DHT22;24727;51.974;20.868;2023-03-01T06:59:47;-1.10;1.00
38938;DHT22;24727;51.974;20.868;2023-03-01T07:02:14;-1.10;1.00
38938;DHT22;24727;51.974;20.868;2023-03-01T07:04:42;-1.00;1.00
38938;DHT22;24727;51.974;20.868;2023-03-01T07:07:08;-0.90;1.00
38938;DHT22;24727;51.974;20.868;2023-03-01T07:09:35;-0.90;1.00
38938;DHT22;24727;51.974;20.868;2023-03-01T07:12:02;-0.80;1.00
38938;DHT22;24727;51.974;20.868;2023-03-01T07:14:28;-0.70;1.00
38938;DHT22;24727;51.974;20.868;2023-03-01T07:16:54;-0.60;1.00
38938;DHT22;24727;51.974;20.868;2023-03-01T07:19:21;-0.50;1.00
38938;DHT22;24727;51.974;20.868;2023-03-01T07:21:47;-0.50;1.00
38938;DHT22;24727;51.974;20.868;2023-03-01T07:24:13;-0.40;1.00
38938;DHT22;24727;51.974;20.868;2023-03-01T07:26:40;-0.30;1.00
38938;DHT22;24727;51.974;20.868;2023-03-01T07:29:09;-0.30;1.00
38938;DHT22;24727;51.974;20.868;2023-03-01T07:31:35;-0.20;1.00
38938;DHT22;24727;51.974;20.868;2023-03-01T07:34:02;-0.10;1.00
38938;DHT22;24727;51.974;20.868;2023-03-01T07:36:29;0.00;1.00
38938;DHT22;24727;51.974;20.868;2023-03-01T07:38:55;0.10;1.00
38938;DHT22;24727;51.974;20.868;2023-03-01T07:41:22;0.10;1.00
38938;DHT22;24727;51.974;20.868;2023-03-01T07:43:48;0.20;1.00
38938;DHT22;24727;51.974;20.868;2023-03-01T07:46:15;0.30;1.00
38938;DHT22;24727;51.974;20.868;2023-03-01T07:48:41;0.40;1.00
38938;DHT22;24727;51.974;20.868;2023-03-01T07:51:07;0.50;1.00
38938;DHT22;24727;51.974;20.868;2023-03-01T07:53:34;0.60;1.00
38938;DHT22;24727;51.974;20.868;2023-03-01T07:56:07;0.70;1.00
38938;DHT22;24727;51.974;20.868;2023-03-01T07:58:40;0.80;1.00
38938;DHT22;24727;51.974;20.868;2023-03-01T08:01:08;0.90;1.00
38938;DHT22;24727;51.974;20.868;2023-03-01T12:26:39;6.00;1.00
38938;DHT22;24727;51.974;20.868;2023-03-01T12:37:54;6.30;1.00
38938;DHT22;24727;51.974;20.868;2023-03-01T12:50:54;6.10;1.00
38938;DHT22;24727;51.974;20.868;2023-03-01T12:53:39;6.30;1.00
38938;DHT22;24727;51.974;20.868;2023-03-01T12:56:21;6.30;1.00
38938;DHT22;24727;51.974;20.868;2023-03-01T12:59:24;6.30;1.00
38938;DHT22;24727;51.974;20.868;2023-03-01T13:02:30;6.30;1.00
38938;DHT22;24727;51.974;20.868;2023-03-01T13:08:07;6.60;1.00
38938;DHT22;24727;51.974;20.868;2023-03-01T13:15:45;6.20;1.00
38938;DHT22;24727;51.974;20.868;2023-03-01T13:28:50;6.00;1.00
38938;DHT22;24727;51.974;20.868;2023-03-01T13:33:52;6.00;1.00
38938;DHT22;24727;51.974;20.868;2023-03-01T13:38:59;6.10;1.00
38938;DHT22;24727;51.974;20.868;2023-03-01T13:44:24;6.00;1.00
38938;DHT22;24727;51.974;20.868;2023-03-01T13:49:28;6.10;1.00
38938;DHT22;24727;51.974;20.868;2023-03-01T13:51:57;6.00;1.00
38938;DHT22;24727;51.974;20.868;2023-03-01T13:54:33;6.10;1.00
38938;DHT22;24727;51.974;20.868;2023-03-01T13:57:00;6.10;1.00
38938;DHT22;24727;51.974;20.868;2023-03-01T13:59:27;6.20;1.00
38938;DHT22;24727;51.974;20.868;2023-03-01T14:01:59;6.00;1.00
38938;DHT22;24727;51.974;20.868;2023-03-01T14:04:31;5.90;1.00
38938;DHT22;24727;51.974;20.868;2023-03-01T14:09:39;5.90;1.00
38938;DHT22;24727;51.974;20.868;2023-03-01T14:15:27;6.10;1.00
38938;DHT22;24727;51.974;20.868;2023-03-01T14:18:21;6.10;1.00
38938;DHT22;24727;51.974;20.868;2023-03-01T14:20:52;6.10;1.00
38938;DHT22;24727;51.974;20.868;2023-03-01T14:23:21;6.10;1.00
38938;DHT22;24727;51.974;20.868;2023-03-01T14:25:58;6.00;1.00
38938;DHT22;24727;51.974;20.868;2023-03-01T14:28:27;5.80;1.00
38938;DHT22;24727;51.974;20.868;2023-03-01T14:31:00;5.80;1.00
38938;DHT22;24727;51.974;20.868;2023-03-01T14:33:30;5.80;1.00
38938;DHT22;24727;51.974;20.868;2023-03-01T14:36:03;5.90;1.00
38938;DHT22;24727;51.974;20.868;2023-03-01T14:38:44;6.00;1.00
38938;DHT22;24727;51.974;20.868;2023-03-01T14:41:24;6.10;1.00
38938;DHT22;24727;51.974;20.868;2023-03-01T14:43:54;6.20;1.00
38938;DHT22;24727;51.974;20.868;2023-03-01T14:46:36;6.10;1.00
38938;DHT22;24727;51.974;20.868;2023-03-01T14:49:26;6.00;1.00
38938;DHT22;24727;51.974;20.868;2023-03-01T14:52:18;6.00;1.00
38938;DHT22;24727;51.974;20.868;2023-03-01T14:54:48;6.00;1.00
38938;DHT22;24727;51.974;20.868;2023-03-01T14:57:17;6.00;1.00
38938;DHT22;24727;51.974;20.868;2023-03-01T14:59:44;5.90;1.00
38938;DHT22;24727;51.974;20.868;2023-03-01T15:02:18;5.90;1.00
38938;DHT22;24727;51.974;20.868;2023-03-01T15:04:47;5.90;1.00
38938;DHT22;24727;51.974;20.868;2023-03-01T15:07:14;5.90;1.00
38938;DHT22;24727;51.974;20.868;2023-03-01T15:09:41;5.90;1.00
38938;DHT22;24727;51.974;20.868;2023-03-01T15:14:56;5.90;1.00
38938;DHT22;24727;51.974;20.868;2023-03-01T15:19:57;5.90;1.00
38938;DHT22;24727;51.974;20.868;2023-03-01T15:22:26;5.80;1.00
38938;DHT22;24727;51.974;20.868;2023-03-01T15:24:53;5.80;1.00
38938;DHT22;24727;51.974;20.868;2023-03-01T15:27:24;5.80;1.00
38938;DHT22;24727;51.974;20.868;2023-03-01T15:29:55;5.80;1.00
38938;DHT22;24727;51.974;20.868;2023-03-01T15:34:54;6.00;1.00
38938;DHT22;24727;51.974;20.868;2023-03-01T15:37:48;5.90;1.00
38938;DHT22;24727;51.974;20.868;2023-03-01T15:40:27;5.80;1.00
38938;DHT22;24727;51.974;20.868;2023-03-01T15:43:04;5.60;1.00
38938;DHT22;24727;51.974;20.868;2023-03-01T15:45:33;5.50;1.00
38938;DHT22;24727;51.974;20.868;2023-03-01T15:48:13;5.30;1.00
38938;DHT22;24727;51.974;20.868;2023-03-01T15:50:41;5.20;1.00
38938;DHT22;24727;51.974;20.868;2023-03-01T15:53:13;5.10;1.00
38938;DHT22;24727;51.974;20.868;2023-03-01T15:55:41;5.00;1.00
38938;DHT22;24727;51.974;20.868;2023-03-01T15:58:17;4.90;1.00
38938;DHT22;24727;51.974;20.868;2023-03-01T16:00:46;4.80;1.00
38938;DHT22;24727;51.974;20.868;2023-03-01T16:03:15;4.70;1.00
38938;DHT22;24727;51.974;20.868;2023-03-01T16:05:47;4.60;1.00
38938;DHT22;24727;51.974;20.868;2023-03-01T16:08:14;4.50;1.00
38938;DHT22;24727;51.974;20.868;2023-03-01T16:10:41;4.40;1.00
38938;DHT22;24727;51.974;20.868;2023-03-01T16:13:13;4.30;1.00
38938;DHT22;24727;51.974;20.868;2023-03-01T16:15:39;4.20;1.00
38938;DHT22;24727;51.974;20.868;2023-03-01T16:18:06;4.00;1.00
38938;DHT22;24727;51.974;20.868;2023-03-01T16:20:37;3.90;1.00
38938;DHT22;24727;51.974;20.868;2023-03-01T16:23:06;3.90;1.00
38938;DHT22;24727;51.974;20.868;2023-03-01T16:25:36;4.10;1.00
38938;DHT22;24727;51.974;20.868;2023-03-01T16:28:03;4.20;1.00
38938;DHT22;24727;51.974;20.868;2023-03-01T16:30:35;4.30;1.00
38938;DHT22;24727;51.974;20.868;2023-03-01T16:33:01;4.40;1.00
38938;DHT22;24727;51.974;20.868;2023-03-01T16:35:28;4.40;1.00
38938;DHT22;24727;51.974;20.868;2023-03-01T16:37:54;4.40;1.00
38938;DHT22;24727;51.974;20.868;2023-03-01T16:40:23;4.40;1.00
38938;DHT22;24727;51.974;20.868;2023-03-01T16:42:51;4.50;1.00
38938;DHT22;24727;51.974;20.868;2023-03-01T16:45:19;4.50;1.00
38938;DHT22;24727;51.974;20.868;2023-03-01T16:47:45;4.50;1.00
38938;DHT22;24727;51.974;20.868;2023-03-01T16:50:12;4.40;1.00
38938;DHT22;24727;51.974;20.868;2023-03-01T16:52:39;4.40;1.00
38938;DHT22;24727;51.974;20.868;2023-03-01T16:55:07;4.40;1.00
38938;DHT22;24727;51.974;20.868;2023-03-01T16:57:36;4.40;1.00
38938;DHT22;24727;51.974;20.868;2023-03-01T17:00:08;4.40;1.00
38938;DHT22;24727;51.974;20.868;2023-03-01T17:02:39;4.30;1.00
38938;DHT22;24727;51.974;20.868;2023-03-01T17:05:07;4.30;1.00
38938;DHT22;24727;51.974;20.868;2023-03-01T17:07:34;4.20;1.00
38938;DHT22;24727;51.974;20.868;2023-03-01T17:10:03;4.20;1.00
38938;DHT22;24727;51.974;20.868;2023-03-01T17:12:30;4.10;1.00
38938;DHT22;24727;51.974;20.868;2023-03-01T17:14:57;4.10;1.00
38938;DHT22;24727;51.974;20.868;2023-03-01T17:17:24;4.00;1.00
38938;DHT22;24727;51.974;20.868;2023-03-01T17:19:51;3.90;1.00
38938;DHT22;24727;51.974;20.868;2023-03-01T17:22:17;3.90;1.00
38938;DHT22;24727;51.974;20.868;2023-03-01T17:24:43;3.80;1.00
38938;DHT22;24727;51.974;20.868;2023-03-01T17:27:14;3.70;1.00
38938;DHT22;24727;51.974;20.868;2023-03-01T17:29:41;3.70;1.00
38938;DHT22;24727;51.974;20.868;2023-03-01T17:32:08;3.70;1.00
38938;DHT22;24727;51.974;20.868;2023-03-01T17:34:34;3.60;1.00
38938;DHT22;24727;51.974;20.868;2023-03-01T17:37:01;3.50;1.00
38938;DHT22;24727;51.974;20.868;2023-03-01T17:39:27;3.50;1.00
38938;DHT22;24727;51.974;20.868;2023-03-01T17:42:02;3.40;1.00
38938;DHT22;24727;51.974;20.868;2023-03-01T17:44:34;3.30;1.00
38938;DHT22;24727;51.974;20.868;2023-03-01T17:47:03;3.30;1.00
38938;DHT22;24727;51.974;20.868;2023-03-01T17:49:30;3.30;1.00
38938;DHT22;24727;51.974;20.868;2023-03-01T17:51:59;3.20;1.00
38938;DHT22;24727;51.974;20.868;2023-03-01T17:54:26;3.20;1.00
38938;DHT22;24727;51.974;20.868;2023-03-01T17:56:54;3.10;1.00
38938;DHT22;24727;51.974;20.868;2023-03-01T17:59:21;3.00;1.00
38938;DHT22;24727;51.974;20.868;2023-03-01T18:01:48;2.90;1.00
38938;DHT22;24727;51.974;20.868;2023-03-01T18:04:15;2.90;1.00
38938;DHT22;24727;51.974;20.868;2023-03-01T18:06:43;2.80;1.00
38938;DHT22;24727;51.974;20.868;2023-03-01T18:09:11;2.80;1.00
38938;DHT22;24727;51.974;20.868;2023-03-01T18:11:38;2.70;1.00
38938;DHT22;24727;51.974;20.868;2023-03-01T18:14:07;2.60;1.00
38938;DHT22;24727;51.974;20.868;2023-03-01T18:16:34;2.60;1.00
38938;DHT22;24727;51.974;20.868;2023-03-01T18:19:00;2.50;1.00
38938;DHT22;24727;51.974;20.868;2023-03-01T18:21:28;2.50;1.00
38938;DHT22;24727;51.974;20.868;2023-03-01T18:23:56;2.40;1.00
38938;DHT22;24727;51.974;20.868;2023-03-01T18:26:24;2.30;1.00
38938;DHT22;24727;51.974;20.868;2023-03-01T18:28:55;2.10;1.00
38938;DHT22;24727;51.974;20.868;2023-03-01T18:31:23;1.80;1.00
38938;DHT22;24727;51.974;20.868;2023-03-01T18:33:54;1.50;1.00
38938;DHT22;24727;51.974;20.868;2023-03-01T18:36:28;1.40;1.00
38938;DHT22;24727;51.974;20.868;2023-03-01T18:38:56;1.40;1.00
38938;DHT22;24727;51.974;20.868;2023-03-01T18:41:27;1.50;1.00
38938;DHT22;24727;51.974;20.868;2023-03-01T18:43:55;1.60;1.00
38938;DHT22;24727;51.974;20.868;2023-03-01T18:46:22;1.60;1.00
38938;DHT22;24727;51.974;20.868;2023-03-01T18:48:51;1.50;1.00
38938;DHT22;24727;51.974;20.868;2023-03-01T18:51:23;1.30;1.00
38938;DHT22;24727;51.974;20.868;2023-03-01T18:53:50;1.20;1.00
38938;DHT22;24727;51.974;20.868;2023-03-01T18:56:24;1.10;1.00
38938;DHT22;24727;51.974;20.868;2023-03-01T18:58:53;1.10;1.00
38938;DHT22;24727;51.974;20.868;2023-03-01T19:01:27;1.20;1.00
38938;DHT22;24727;51.974;20.868;2023-03-01T19:03:55;1.20;1.00
38938;DHT22;24727;51.974;20.868;2023-03-01T19:06:22;1.20;1.00
38938;DHT22;24727;51.974;20.868;2023-03-01T19:08:52;1.20;1.00
38938;DHT22;24727;51.974;20.868;2023-03-01T19:11:18;1.20;1.00
38938;DHT22;24727;51.974;20.868;2023-03-01T19:13:45;1.20;1.00
38938;DHT22;24727;51.974;20.868;2023-03-01T19:16:16;1.10;1.00
38938;DHT22;24727;51.974;20.868;2023-03-01T19:18:45;1.00;1.00
38938;DHT22;24727;51.974;20.868;2023-03-01T19:21:21;1.00;1.00
38938;DHT22;24727;51.974;20.868;2023-03-01T19:23:50;1.10;1.00
38938;DHT22;24727;51.974;20.868;2023-03-01T19:26:22;1.20;1.00
38938;DHT22;24727;51.974;20.868;2023-03-01T19:28:51;1.20;1.00
38938;DHT22;24727;51.974;20.868;2023-03-01T19:31:20;1.40;1.00
38938;DHT22;24727;51.974;20.868;2023-03-01T19:33:52;1.40;1.00
38938;DHT22;24727;51.974;20.868;2023-03-01T19:36:19;1.40;1.00
38938;DHT22;24727;51.974;20.868;2023-03-01T19:38:46;1.40;1.00
38938;DHT22;24727;51.974;20.868;2023-03-01T19:41:16;1.30;1.00
38938;DHT22;24727;51.974;20.868;2023-03-01T19:43:44;1.20;1.00
38938;DHT22;24727;51.974;20.868;2023-03-01T19:46:13;1.10;1.00
38938;DHT22;24727;51.974;20.868;2023-03-01T19:48:41;1.10;1.00
38938;DHT22;24727;51.974;20.868;2023-03-01T19:51:12;1.10;1.00
38938;DHT22;24727;51.974;20.868;2023-03-01T19:53:39;1.00;1.00
38938;DHT22;24727;51.974;20.868;2023-03-01T19:56:06;0.90;1.00
38938;DHT22;24727;51.974;20.868;2023-03-01T19:58:33;0.80;1.00
38938;DHT22;24727;51.974;20.868;2023-03-01T20:00:59;0.80;1.00
38938;DHT22;24727;51.974;20.868;2023-03-01T20:03:32;0.70;1.00
38938;DHT22;24727;51.974;20.868;2023-03-01T20:06:05;0.60;1.00
38938;DHT22;24727;51.974;20.868;2023-03-01T20:08:33;0.60;1.00
38938;DHT22;24727;51.974;20.868;2023-03-01T20:11:05;0.60;1.00
38938;DHT22;24727;51.974;20.868;2023-03-01T20:13:35;0.60;1.00
38938;DHT22;24727;51.974;20.868;2023-03-01T20:16:02;0.50;1.00
38938;DHT22;24727;51.974;20.868;2023-03-01T20:18:29;0.60;1.00
38938;DHT22;24727;51.974;20.868;2023-03-01T20:20:57;0.60;1.00
38938;DHT22;24727;51.974;20.868;2023-03-01T20:23:24;0.70;1.00
38938;DHT22;24727;51.974;20.868;2023-03-01T20:25:51;0.70;1.00
38938;DHT22;24727;51.974;20.868;2023-03-01T20:28:19;0.80;1.00
38938;DHT22;24727;51.974;20.868;2023-03-01T20:30:45;0.80;1.00
38938;DHT22;24727;51.974;20.868;2023-03-01T20:33:12;0.90;1.00
38938;DHT22;24727;51.974;20.868;2023-03-01T20:35:42;1.00;1.00
38938;DHT22;24727;51.974;20.868;2023-03-01T20:38:09;1.00;1.00
38938;DHT22;24727;51.974;20.868;2023-03-01T20:40:36;1.00;1.00
38938;DHT22;24727;51.974;20.868;2023-03-01T20:43:05;0.90;1.00
38938;DHT22;24727;51.974;20.868;2023-03-01T20:45:32;0.90;1.00
38938;DHT22;24727;51.974;20.868;2023-03-01T20:47:59;0.80;1.00
38938;DHT22;24727;51.974;20.868;2023-03-01T20:50:25;0.80;1.00
38938;DHT22;24727;51.974;20.868;2023-03-01T20:52:52;0.90;1.00
38938;DHT22;24727;51.974;20.868;2023-03-01T20:55:18;0.80;1.00
38938;DHT22;24727;51.974;20.868;2023-03-01T20:57:47;0.80;1.00
38938;DHT22;24727;51.974;20.868;2023-03-01T21:00:20;0.80;1.00
38938;DHT22;24727;51.974;20.868;2023-03-01T21:02:47;0.80;1.00
38938;DHT22;24727;51.974;20.868;2023-03-01T21:05:13;0.80;1.00
38938;DHT22;24727;51.974;20.868;2023-03-01T21:07:39;0.80;1.00
38938;DHT22;24727;51.974;20.868;2023-03-01T21:10:06;0.80;1.00
38938;DHT22;24727;51.974;20.868;2023-03-01T21:12:32;0.80;1.00
38938;DHT22;24727;51.974;20.868;2023-03-01T21:14:59;0.80;1.00
38938;DHT22;24727;51.974;20.868;2023-03-01T21:17:25;0.80;1.00
38938;DHT22;24727;51.974;20.868;2023-03-01T21:19:52;0.80;1.00
38938;DHT22;24727;51.974;20.868;2023-03-01T21:22:18;0.80;1.00
38938;DHT22;24727;51.974;20.868;2023-03-01T21:24:44;0.70;1.00
38938;DHT22;24727;51.974;20.868;2023-03-01T21:27:10;0.70;1.00